SCSN

Details ICAO SCSN
Name Santo Domingo
Region Chile
Timezone America/Santiago (UTC-4.0)
Plans Departing 6
Arriving 13
Stats Elevation 246 ft / 75 m (AMSL)
Location -33.656652° -71.615702°
Runways 1
Magnetic Variation 2.641° E
Sunrise 2018-05-21 11:36:51 UTC / 2018-05-21 07:36:51 Local
Sunset 2018-05-21 21:52:08 UTC / 2018-05-21 17:52:08 Local
Advertisement - Login to hide

Runways

ID Width Length Bearing (true) Bearing (mag) Surface Threshold Offset Overrun Length
05 59 ft / 18 m 2,627 ft / 801 m 56.00° 53.36° Asphalt 0 ft / 0 m 0 ft / 0 m
23 59 ft / 18 m 2,627 ft / 801 m 236.00° 233.36° Asphalt 0 ft / 0 m 0 ft / 0 m

Approach Navaids

Runway Type Ident Frequency Range Bearing (true) Bearing (mag) Slope Elevation
23 Localiser ISNO 109.90 MHz 18 nm / 33 km 241.42° 238.78° - 246 ft / 75 m (AMSL)
23 Glidescope GP 109.90 MHz 10 nm / 19 km 236.00° 233.36° 3.00° 246 ft / 75 m (AMSL)
23 DME GP 109.90 MHz 18 nm / 33 km - - - 246 ft / 75 m (AMSL)

Map

Weather


0- 5 10 15 20 25 30 35+ Temperature / ° C

Clouds and Precipitation
Forecast for 2018-05-21 06:00 UTC. Updated a minute ago

Ground ~20,000 ft ~40,000 ft Winds

METAR

SCSN 210500Z AUTO 00000KT 0450 R/////// -RA FG VV001 10/10 Q1019

TAF

Not found

Frequencies

Ground 121.90 MHz GNDC Santo Domingo
Tower 118.50 MHz Tower Santo Domingo
Warning: Do not use this data for real-world aviation or navigation. No guarantee of current accuracy is given.